Terminal Aerodrome Forecast
Issued by NWS

Home | Current Version | Previous Version | Text Only | Print | Product List | Glossary On
Versions: 1 2 3 4 5 6 7 8 9 10 11 12 13 14 15 16 17 18 19 20 21 22 23 24
000
FTUS43 KTOP 210526
TAFFOE
TAF
KFOE 210526Z 2106/2206 25005KT 3SM BR BKN120
      TEMPO 2106/2110 1/4SM FG VV002
     FM211400 22005KT 5SM BR SCT130
     FM211600 21006KT P6SM SCT200
     FM212300 11004KT P6SM SCT200=

USA.gov is the U.S. government's official web portal to all federal, state and local government web resources and services.